sensor_id;sensor_type;location;lat;lon;timestamp;pressure;altitude;pressure_sealevel;temperature;humidity
33286;BME280;19656;50.096;20.014;2023-02-11T00:00:25;100718.45;;;2.92;52.02
33286;BME280;19656;50.096;20.014;2023-02-11T00:05:58;100714.80;;;2.85;52.22
33286;BME280;19656;50.096;20.014;2023-02-11T00:11:03;100700.63;;;2.77;52.19
33286;BME280;19656;50.096;20.014;2023-02-11T00:16:08;100698.72;;;2.71;52.55
33286;BME280;19656;50.096;20.014;2023-02-11T00:21:14;100684.35;;;2.70;52.58
33286;BME280;19656;50.096;20.014;2023-02-11T00:26:24;100677.70;;;2.70;52.58
33286;BME280;19656;50.096;20.014;2023-02-11T00:31:28;100681.23;;;2.66;52.39
33286;BME280;19656;50.096;20.014;2023-02-11T00:36:31;100674.91;;;2.60;52.47
33286;BME280;19656;50.096;20.014;2023-02-11T00:41:35;100672.33;;;2.48;52.59
33286;BME280;19656;50.096;20.014;2023-02-11T00:46:38;100678.15;;;2.39;53.05
33286;BME280;19656;50.096;20.014;2023-02-11T00:51:45;100670.78;;;2.36;52.97
33286;BME280;19656;50.096;20.014;2023-02-11T00:56:48;100649.27;;;2.31;53.12
33286;BME280;19656;50.096;20.014;2023-02-11T01:01:52;100641.23;;;2.29;53.28
33286;BME280;19656;50.096;20.014;2023-02-11T01:06:55;100630.16;;;2.29;53.22
33286;BME280;19656;50.096;20.014;2023-02-11T01:12:00;100617.23;;;2.27;53.19
33286;BME280;19656;50.096;20.014;2023-02-11T01:17:04;100597.48;;;2.19;53.27
33286;BME280;19656;50.096;20.014;2023-02-11T01:22:19;100585.95;;;2.06;53.57
33286;BME280;19656;50.096;20.014;2023-02-11T01:27:22;100582.48;;;1.94;54.01
33286;BME280;19656;50.096;20.014;2023-02-11T01:32:25;100588.61;;;1.89;54.23
33286;BME280;19656;50.096;20.014;2023-02-11T01:37:32;100585.11;;;1.82;54.50
33286;BME280;19656;50.096;20.014;2023-02-11T01:42:35;100574.98;;;1.81;54.68
33286;BME280;19656;50.096;20.014;2023-02-11T01:47:38;100564.48;;;1.79;54.72
33286;BME280;19656;50.096;20.014;2023-02-11T01:52:42;100553.30;;;1.77;54.73
33286;BME280;19656;50.096;20.014;2023-02-11T01:57:52;100526.67;;;1.83;54.76
33286;BME280;19656;50.096;20.014;2023-02-11T02:03:11;100532.63;;;1.84;54.80
33286;BME280;19656;50.096;20.014;2023-02-11T02:08:28;100525.27;;;1.82;54.95
33286;BME280;19656;50.096;20.014;2023-02-11T02:13:37;100525.80;;;1.81;54.81
33286;BME280;19656;50.096;20.014;2023-02-11T02:18:55;100525.45;;;1.83;54.91
33286;BME280;19656;50.096;20.014;2023-02-11T02:29:33;100531.38;;;1.88;54.71
33286;BME280;19656;50.096;20.014;2023-02-11T02:40:20;100536.48;;;1.78;54.99
33286;BME280;19656;50.096;20.014;2023-02-11T02:45:25;100522.13;;;1.82;54.92
33286;BME280;19656;50.096;20.014;2023-02-11T02:50:32;100505.51;;;1.81;54.87
33286;BME280;19656;50.096;20.014;2023-02-11T02:55:48;100491.70;;;1.76;54.88
33286;BME280;19656;50.096;20.014;2023-02-11T03:06:29;100474.20;;;1.78;54.76
33286;BME280;19656;50.096;20.014;2023-02-11T03:11:36;100458.79;;;1.79;54.70
33286;BME280;19656;50.096;20.014;2023-02-11T03:16:41;100440.61;;;1.78;54.83
33286;BME280;19656;50.096;20.014;2023-02-11T03:21:46;100423.11;;;1.78;54.96
33286;BME280;19656;50.096;20.014;2023-02-11T03:26:54;100397.04;;;1.79;54.88
33286;BME280;19656;50.096;20.014;2023-02-11T03:42:27;100359.41;;;1.80;54.65
33286;BME280;19656;50.096;20.014;2023-02-11T03:47:36;100363.30;;;1.71;54.75
33286;BME280;19656;50.096;20.014;2023-02-11T03:52:41;100369.80;;;1.68;55.05
33286;BME280;19656;50.096;20.014;2023-02-11T03:57:46;100374.18;;;1.65;54.97
33286;BME280;19656;50.096;20.014;2023-02-11T04:02:50;100375.03;;;1.69;55.02
33286;BME280;19656;50.096;20.014;2023-02-11T04:07:54;100360.34;;;1.70;54.89
33286;BME280;19656;50.096;20.014;2023-02-11T04:12:57;100344.24;;;1.70;54.84
33286;BME280;19656;50.096;20.014;2023-02-11T04:18:00;100332.02;;;1.66;54.97
33286;BME280;19656;50.096;20.014;2023-02-11T04:23:05;100323.46;;;1.64;54.88
33286;BME280;19656;50.096;20.014;2023-02-11T04:28:09;100316.63;;;1.67;54.84
33286;BME280;19656;50.096;20.014;2023-02-11T04:33:13;100297.38;;;1.69;54.85
33286;BME280;19656;50.096;20.014;2023-02-11T04:38:16;100284.60;;;1.70;54.87
33286;BME280;19656;50.096;20.014;2023-02-11T04:43:19;100280.75;;;1.71;54.85
33286;BME280;19656;50.096;20.014;2023-02-11T04:48:23;100275.28;;;1.77;54.88
33286;BME280;19656;50.096;20.014;2023-02-11T04:53:27;100282.96;;;1.79;54.94
33286;BME280;19656;50.096;20.014;2023-02-11T04:58:30;100294.86;;;1.78;54.91
33286;BME280;19656;50.096;20.014;2023-02-11T05:03:33;100306.78;;;1.76;55.07
33286;BME280;19656;50.096;20.014;2023-02-11T05:08:37;100292.23;;;1.79;55.24
33286;BME280;19656;50.096;20.014;2023-02-11T05:13:40;100297.46;;;1.85;55.13
33286;BME280;19656;50.096;20.014;2023-02-11T05:18:44;100303.46;;;1.77;55.43
33286;BME280;19656;50.096;20.014;2023-02-11T05:23:47;100291.56;;;1.76;55.53
33286;BME280;19656;50.096;20.014;2023-02-11T05:28:50;100288.03;;;1.81;55.73
33286;BME280;19656;50.096;20.014;2023-02-11T05:33:54;100285.73;;;1.84;55.52
33286;BME280;19656;50.096;20.014;2023-02-11T05:38:57;100294.27;;;1.87;55.51
33286;BME280;19656;50.096;20.014;2023-02-11T05:44:00;100289.72;;;1.89;55.43
33286;BME280;19656;50.096;20.014;2023-02-11T05:49:04;100291.12;;;1.89;55.58
33286;BME280;19656;50.096;20.014;2023-02-11T05:54:07;100307.08;;;1.86;55.82
33286;BME280;19656;50.096;20.014;2023-02-11T05:59:13;100311.66;;;1.79;55.89
33286;BME280;19656;50.096;20.014;2023-02-11T06:04:17;100313.92;;;1.79;56.16
33286;BME280;19656;50.096;20.014;2023-02-11T06:09:20;100292.02;;;1.85;56.09
33286;BME280;19656;50.096;20.014;2023-02-11T06:14:23;100262.04;;;1.94;56.12
33286;BME280;19656;50.096;20.014;2023-02-11T06:19:27;100215.25;;;2.01;55.84
33286;BME280;19656;50.096;20.014;2023-02-11T06:24:30;100161.64;;;2.08;56.10
33286;BME280;19656;50.096;20.014;2023-02-11T06:29:54;100158.78;;;2.14;55.74
33286;BME280;19656;50.096;20.014;2023-02-11T06:34:57;100173.29;;;2.17;55.85
33286;BME280;19656;50.096;20.014;2023-02-11T06:40:01;100183.71;;;2.25;55.83
33286;BME280;19656;50.096;20.014;2023-02-11T06:45:05;100183.08;;;2.34;55.58
33286;BME280;19656;50.096;20.014;2023-02-11T06:50:12;100189.36;;;2.38;55.31
33286;BME280;19656;50.096;20.014;2023-02-11T06:55:16;100193.91;;;2.37;55.45
33286;BME280;19656;50.096;20.014;2023-02-11T07:00:20;100200.77;;;2.34;55.17
33286;BME280;19656;50.096;20.014;2023-02-11T07:05:23;100216.17;;;2.36;55.19
33286;BME280;19656;50.096;20.014;2023-02-11T07:10:26;100216.81;;;2.42;55.08
33286;BME280;19656;50.096;20.014;2023-02-11T07:15:30;100209.77;;;2.46;55.06
33286;BME280;19656;50.096;20.014;2023-02-11T07:20:33;100213.02;;;2.54;55.03
33286;BME280;19656;50.096;20.014;2023-02-11T07:25:37;100213.65;;;2.59;55.29
33286;BME280;19656;50.096;20.014;2023-02-11T07:30:40;100203.59;;;2.67;55.41
33286;BME280;19656;50.096;20.014;2023-02-11T07:35:43;100189.10;;;2.78;54.91
33286;BME280;19656;50.096;20.014;2023-02-11T07:40:46;100171.62;;;2.87;54.69
33286;BME280;19656;50.096;20.014;2023-02-11T07:45:49;100151.63;;;2.90;54.72
33286;BME280;19656;50.096;20.014;2023-02-11T07:50:53;100159.64;;;2.93;54.64
33286;BME280;19656;50.096;20.014;2023-02-11T07:55:56;100166.67;;;2.91;54.95
33286;BME280;19656;50.096;20.014;2023-02-11T08:01:07;100159.50;;;2.91;54.68
33286;BME280;19656;50.096;20.014;2023-02-11T08:06:14;100149.43;;;2.96;54.97
33286;BME280;19656;50.096;20.014;2023-02-11T08:11:25;100152.89;;;2.99;55.04
33286;BME280;19656;50.096;20.014;2023-02-11T08:16:31;100146.09;;;2.97;55.07
33286;BME280;19656;50.096;20.014;2023-02-11T08:21:35;100141.30;;;3.02;55.30
33286;BME280;19656;50.096;20.014;2023-02-11T08:26:38;100139.44;;;3.09;55.35
33286;BME280;19656;50.096;20.014;2023-02-11T08:31:44;100137.82;;;3.12;55.27
33286;BME280;19656;50.096;20.014;2023-02-11T08:36:48;100141.43;;;3.17;55.21
33286;BME280;19656;50.096;20.014;2023-02-11T08:41:53;100136.05;;;3.25;55.14
33286;BME280;19656;50.096;20.014;2023-02-11T08:46:58;100138.41;;;3.32;54.90
33286;BME280;19656;50.096;20.014;2023-02-11T08:52:02;100150.13;;;3.47;54.36
33286;BME280;19656;50.096;20.014;2023-02-11T08:57:06;100141.30;;;3.61;54.18
33286;BME280;19656;50.096;20.014;2023-02-11T09:02:13;100134.66;;;3.81;54.23
33286;BME280;19656;50.096;20.014;2023-02-11T09:07:16;100130.42;;;3.92;53.43
33286;BME280;19656;50.096;20.014;2023-02-11T09:12:19;100128.30;;;4.03;53.70
33286;BME280;19656;50.096;20.014;2023-02-11T09:17:23;100137.52;;;4.17;52.50
33286;BME280;19656;50.096;20.014;2023-02-11T09:22:26;100130.36;;;4.25;52.13
33286;BME280;19656;50.096;20.014;2023-02-11T09:27:30;100112.52;;;4.40;52.32
33286;BME280;19656;50.096;20.014;2023-02-11T09:32:33;100130.44;;;4.48;51.88
33286;BME280;19656;50.096;20.014;2023-02-11T09:37:36;100127.42;;;4.50;51.28
33286;BME280;19656;50.096;20.014;2023-02-11T09:42:47;100132.73;;;4.57;51.29
33286;BME280;19656;50.096;20.014;2023-02-11T09:48:04;100140.59;;;4.77;52.87
33286;BME280;19656;50.096;20.014;2023-02-11T09:58:35;100138.33;;;5.01;50.16
33286;BME280;19656;50.096;20.014;2023-02-11T10:09:03;100136.14;;;5.04;50.52
33286;BME280;19656;50.096;20.014;2023-02-11T10:25:49;100092.78;;;5.16;49.91
33286;BME280;19656;50.096;20.014;2023-02-11T10:31:12;100095.45;;;5.15;50.13
33286;BME280;19656;50.096;20.014;2023-02-11T10:36:22;100095.23;;;5.17;50.17
33286;BME280;19656;50.096;20.014;2023-02-11T10:41:33;100067.59;;;5.17;50.31
33286;BME280;19656;50.096;20.014;2023-02-11T10:46:37;100049.77;;;5.20;50.53
33286;BME280;19656;50.096;20.014;2023-02-11T10:51:42;100042.50;;;5.29;50.08
33286;BME280;19656;50.096;20.014;2023-02-11T10:56:50;100024.95;;;5.42;50.31
33286;BME280;19656;50.096;20.014;2023-02-11T11:02:06;100002.52;;;5.53;49.76
33286;BME280;19656;50.096;20.014;2023-02-11T11:07:25;99981.64;;;5.69;49.59
33286;BME280;19656;50.096;20.014;2023-02-11T11:12:45;99973.67;;;5.78;49.44
33286;BME280;19656;50.096;20.014;2023-02-11T11:23:24;99941.89;;;5.80;48.75
33286;BME280;19656;50.096;20.014;2023-02-11T11:28:32;99946.19;;;5.84;49.06
33286;BME280;19656;50.096;20.014;2023-02-11T11:33:42;99948.99;;;5.91;48.93
33286;BME280;19656;50.096;20.014;2023-02-11T11:38:53;99944.70;;;6.12;48.88
33286;BME280;19656;50.096;20.014;2023-02-11T11:44:01;99923.95;;;6.29;48.47
33286;BME280;19656;50.096;20.014;2023-02-11T11:49:24;99925.15;;;6.30;48.36
33286;BME280;19656;50.096;20.014;2023-02-11T11:54:30;99939.72;;;6.14;48.68
33286;BME280;19656;50.096;20.014;2023-02-11T11:59:36;99950.84;;;6.02;48.83
33286;BME280;19656;50.096;20.014;2023-02-11T12:04:53;99948.22;;;6.01;49.37
33286;BME280;19656;50.096;20.014;2023-02-11T12:10:28;99958.27;;;5.93;49.38
33286;BME280;19656;50.096;20.014;2023-02-11T12:16:29;99963.13;;;5.83;49.81
33286;BME280;19656;50.096;20.014;2023-02-11T12:37:44;99954.84;;;5.64;51.27
33286;BME280;19656;50.096;20.014;2023-02-11T12:42:58;99937.27;;;5.63;51.55
33286;BME280;19656;50.096;20.014;2023-02-11T12:48:37;99947.71;;;5.61;51.58
33286;BME280;19656;50.096;20.014;2023-02-11T12:54:09;99931.14;;;5.49;52.21
33286;BME280;19656;50.096;20.014;2023-02-11T12:59:50;99894.45;;;5.45;52.20
33286;BME280;19656;50.096;20.014;2023-02-11T13:05:18;99893.61;;;5.44;52.75
33286;BME280;19656;50.096;20.014;2023-02-11T13:15:34;99893.98;;;5.43;53.50
33286;BME280;19656;50.096;20.014;2023-02-11T13:21:04;99902.37;;;5.39;53.93
33286;BME280;19656;50.096;20.014;2023-02-11T13:26:28;99895.80;;;5.35;54.65
33286;BME280;19656;50.096;20.014;2023-02-11T13:31:37;99870.99;;;5.35;55.72
33286;BME280;19656;50.096;20.014;2023-02-11T13:36:53;99861.50;;;5.28;56.74
33286;BME280;19656;50.096;20.014;2023-02-11T13:42:02;99851.27;;;5.22;57.09
33286;BME280;19656;50.096;20.014;2023-02-11T13:47:25;99821.70;;;5.16;57.39
33286;BME280;19656;50.096;20.014;2023-02-11T13:52:35;99810.80;;;5.10;58.10
33286;BME280;19656;50.096;20.014;2023-02-11T13:57:41;99846.61;;;5.06;58.10
33286;BME280;19656;50.096;20.014;2023-02-11T14:08:33;99854.98;;;5.09;58.21
33286;BME280;19656;50.096;20.014;2023-02-11T14:19:59;99875.02;;;5.09;58.23
33286;BME280;19656;50.096;20.014;2023-02-11T14:25:11;99889.39;;;5.11;58.21
33286;BME280;19656;50.096;20.014;2023-02-11T14:36:40;99911.45;;;5.15;58.63
33286;BME280;19656;50.096;20.014;2023-02-11T14:41:47;99907.83;;;5.12;59.09
33286;BME280;19656;50.096;20.014;2023-02-11T14:46:54;99913.60;;;5.07;59.28
33286;BME280;19656;50.096;20.014;2023-02-11T14:52:15;99912.29;;;5.10;59.16
33286;BME280;19656;50.096;20.014;2023-02-11T14:57:24;99905.80;;;5.09;59.26
33286;BME280;19656;50.096;20.014;2023-02-11T15:02:37;99904.84;;;5.06;59.51
33286;BME280;19656;50.096;20.014;2023-02-11T15:07:46;99907.30;;;5.06;59.79
33286;BME280;19656;50.096;20.014;2023-02-11T15:12:51;99909.58;;;4.99;60.00
33286;BME280;19656;50.096;20.014;2023-02-11T15:17:57;99922.52;;;4.95;60.89
33286;BME280;19656;50.096;20.014;2023-02-11T15:23:04;99918.27;;;4.89;61.24
33286;BME280;19656;50.096;20.014;2023-02-11T15:28:24;99918.97;;;4.89;61.75
33286;BME280;19656;50.096;20.014;2023-02-11T15:33:28;99926.54;;;4.89;62.65
33286;BME280;19656;50.096;20.014;2023-02-11T15:38:34;99937.92;;;4.83;63.34
33286;BME280;19656;50.096;20.014;2023-02-11T15:48:50;99940.64;;;4.65;64.77
33286;BME280;19656;50.096;20.014;2023-02-11T15:54:17;99938.98;;;4.54;65.59
33286;BME280;19656;50.096;20.014;2023-02-11T15:59:28;99941.36;;;4.49;66.43
33286;BME280;19656;50.096;20.014;2023-02-11T16:04:34;99944.41;;;4.46;67.00
33286;BME280;19656;50.096;20.014;2023-02-11T16:09:38;99947.19;;;4.48;66.94
33286;BME280;19656;50.096;20.014;2023-02-11T16:14:41;99936.23;;;4.43;67.53
33286;BME280;19656;50.096;20.014;2023-02-11T16:19:47;99949.51;;;4.38;67.62
33286;BME280;19656;50.096;20.014;2023-02-11T16:24:52;99956.46;;;4.34;67.98
33286;BME280;19656;50.096;20.014;2023-02-11T16:29:57;99967.14;;;4.35;67.87
33286;BME280;19656;50.096;20.014;2023-02-11T16:35:06;99958.60;;;4.41;68.35
33286;BME280;19656;50.096;20.014;2023-02-11T16:40:13;99965.27;;;4.40;68.57
33286;BME280;19656;50.096;20.014;2023-02-11T16:45:17;99976.86;;;4.32;68.84
33286;BME280;19656;50.096;20.014;2023-02-11T16:50:22;99978.08;;;4.25;69.10
33286;BME280;19656;50.096;20.014;2023-02-11T16:55:27;99977.35;;;4.18;69.69
33286;BME280;19656;50.096;20.014;2023-02-11T17:00:31;99979.66;;;4.25;69.62
33286;BME280;19656;50.096;20.014;2023-02-11T17:05:35;99973.73;;;4.31;69.51
33286;BME280;19656;50.096;20.014;2023-02-11T17:10:56;99981.63;;;4.31;69.96
33286;BME280;19656;50.096;20.014;2023-02-11T17:16:01;99998.33;;;4.31;70.19
33286;BME280;19656;50.096;20.014;2023-02-11T17:21:06;100000.88;;;4.27;70.43
33286;BME280;19656;50.096;20.014;2023-02-11T17:26:10;100000.47;;;4.21;70.32
33286;BME280;19656;50.096;20.014;2023-02-11T17:31:16;100003.77;;;4.23;70.44
33286;BME280;19656;50.096;20.014;2023-02-11T17:36:21;100013.08;;;4.23;70.53
33286;BME280;19656;50.096;20.014;2023-02-11T17:41:26;100019.30;;;4.19;70.48
33286;BME280;19656;50.096;20.014;2023-02-11T17:46:33;100007.95;;;4.24;70.72
33286;BME280;19656;50.096;20.014;2023-02-11T17:51:38;100000.95;;;4.32;70.65
33286;BME280;19656;50.096;20.014;2023-02-11T17:56:45;99984.73;;;4.42;70.39
33286;BME280;19656;50.096;20.014;2023-02-11T18:01:58;99992.96;;;4.44;70.59
33286;BME280;19656;50.096;20.014;2023-02-11T18:07:06;99991.85;;;4.38;70.63
33286;BME280;19656;50.096;20.014;2023-02-11T18:12:11;100006.91;;;4.33;70.78
33286;BME280;19656;50.096;20.014;2023-02-11T18:17:14;100007.55;;;4.34;70.99
33286;BME280;19656;50.096;20.014;2023-02-11T18:22:19;100007.67;;;4.38;71.37
33286;BME280;19656;50.096;20.014;2023-02-11T18:27:25;100010.31;;;4.38;71.14
33286;BME280;19656;50.096;20.014;2023-02-11T18:32:31;100007.31;;;4.38;71.10
33286;BME280;19656;50.096;20.014;2023-02-11T18:37:36;100022.52;;;4.42;71.62
33286;BME280;19656;50.096;20.014;2023-02-11T18:42:40;100026.27;;;4.39;71.60
33286;BME280;19656;50.096;20.014;2023-02-11T18:47:46;100021.95;;;4.36;71.39
33286;BME280;19656;50.096;20.014;2023-02-11T18:52:51;100025.61;;;4.36;71.90
33286;BME280;19656;50.096;20.014;2023-02-11T18:57:56;100027.56;;;4.44;71.62
33286;BME280;19656;50.096;20.014;2023-02-11T19:03:00;100036.51;;;4.45;71.90
33286;BME280;19656;50.096;20.014;2023-02-11T19:08:04;100041.44;;;4.44;71.75
33286;BME280;19656;50.096;20.014;2023-02-11T19:13:08;100045.75;;;4.48;71.93
33286;BME280;19656;50.096;20.014;2023-02-11T19:18:13;100038.48;;;4.51;71.76
33286;BME280;19656;50.096;20.014;2023-02-11T19:23:17;100051.73;;;4.56;71.83
33286;BME280;19656;50.096;20.014;2023-02-11T19:28:21;100045.30;;;4.53;72.02
33286;BME280;19656;50.096;20.014;2023-02-11T19:33:28;100048.09;;;4.54;71.94
33286;BME280;19656;50.096;20.014;2023-02-11T19:38:36;100055.87;;;4.51;71.89
33286;BME280;19656;50.096;20.014;2023-02-11T19:43:43;100056.48;;;4.55;71.92
33286;BME280;19656;50.096;20.014;2023-02-11T19:48:50;100054.91;;;4.55;72.17
33286;BME280;19656;50.096;20.014;2023-02-11T19:53:56;100057.94;;;4.62;72.61
33286;BME280;19656;50.096;20.014;2023-02-11T19:59:02;100062.23;;;4.67;72.41
33286;BME280;19656;50.096;20.014;2023-02-11T20:04:08;100059.05;;;4.60;72.33
33286;BME280;19656;50.096;20.014;2023-02-11T20:09:14;100064.95;;;4.54;72.73
33286;BME280;19656;50.096;20.014;2023-02-11T20:14:18;100065.05;;;4.58;72.91
33286;BME280;19656;50.096;20.014;2023-02-11T20:19:23;100060.23;;;4.61;73.17
33286;BME280;19656;50.096;20.014;2023-02-11T20:24:29;100066.02;;;4.62;73.28
33286;BME280;19656;50.096;20.014;2023-02-11T20:29:34;100064.73;;;4.65;73.27
33286;BME280;19656;50.096;20.014;2023-02-11T20:34:44;100062.02;;;4.68;73.12
33286;BME280;19656;50.096;20.014;2023-02-11T20:39:48;100070.70;;;4.73;73.25
33286;BME280;19656;50.096;20.014;2023-02-11T20:44:53;100070.61;;;4.86;73.61
33286;BME280;19656;50.096;20.014;2023-02-11T20:49:58;100069.69;;;4.96;72.90
33286;BME280;19656;50.096;20.014;2023-02-11T20:55:03;100067.91;;;4.95;72.71
33286;BME280;19656;50.096;20.014;2023-02-11T21:00:07;100072.53;;;4.94;72.65
33286;BME280;19656;50.096;20.014;2023-02-11T21:05:11;100081.30;;;4.95;72.79
33286;BME280;19656;50.096;20.014;2023-02-11T21:10:14;100085.98;;;4.98;72.79
33286;BME280;19656;50.096;20.014;2023-02-11T21:15:18;100092.82;;;4.99;72.70
33286;BME280;19656;50.096;20.014;2023-02-11T21:20:21;100090.51;;;4.92;72.65
33286;BME280;19656;50.096;20.014;2023-02-11T21:25:25;100091.67;;;4.95;72.94
33286;BME280;19656;50.096;20.014;2023-02-11T21:30:28;100098.16;;;5.04;72.86
33286;BME280;19656;50.096;20.014;2023-02-11T21:35:35;100100.70;;;5.08;72.87
33286;BME280;19656;50.096;20.014;2023-02-11T21:40:38;100111.27;;;5.15;72.81
33286;BME280;19656;50.096;20.014;2023-02-11T21:45:43;100113.14;;;5.26;72.35
33286;BME280;19656;50.096;20.014;2023-02-11T21:50:47;100123.48;;;5.27;72.78
33286;BME280;19656;50.096;20.014;2023-02-11T21:56:01;100124.23;;;5.25;72.64
33286;BME280;19656;50.096;20.014;2023-02-11T22:01:17;100123.86;;;5.27;72.70
33286;BME280;19656;50.096;20.014;2023-02-11T22:06:26;100134.56;;;5.28;72.59
33286;BME280;19656;50.096;20.014;2023-02-11T22:11:30;100137.38;;;5.28;72.84
33286;BME280;19656;50.096;20.014;2023-02-11T22:16:33;100141.81;;;5.34;72.75
33286;BME280;19656;50.096;20.014;2023-02-11T22:21:38;100146.04;;;5.41;72.84
33286;BME280;19656;50.096;20.014;2023-02-11T22:26:41;100151.67;;;5.41;72.56
33286;BME280;19656;50.096;20.014;2023-02-11T22:31:45;100154.30;;;5.34;72.47
33286;BME280;19656;50.096;20.014;2023-02-11T22:36:48;100152.27;;;5.22;72.73
33286;BME280;19656;50.096;20.014;2023-02-11T22:41:52;100154.59;;;5.21;73.17
33286;BME280;19656;50.096;20.014;2023-02-11T22:46:56;100161.87;;;5.26;73.02
33286;BME280;19656;50.096;20.014;2023-02-11T22:52:00;100171.93;;;5.33;72.95
33286;BME280;19656;50.096;20.014;2023-02-11T23:03:24;100181.49;;;5.30;73.19
33286;BME280;19656;50.096;20.014;2023-02-11T23:16:08;100177.20;;;5.25;73.47
33286;BME280;19656;50.096;20.014;2023-02-11T23:23:18;100175.63;;;5.33;73.76
33286;BME280;19656;50.096;20.014;2023-02-11T23:35:53;100178.77;;;5.26;73.54
33286;BME280;19656;50.096;20.014;2023-02-11T23:48:50;100193.86;;;5.28;73.51
